Time;durP1;ratioP1;P1;durP2;ratioP2;P2;SDS_P1;SDS_P2;PMS_P1;PMS_P2;Temp;Humidity;BMP_temperature;BMP_pressure;BME280_temperature;BME280_humidity;BME280_pressure;Samples;Min_cycle;Max_cycle;Signal;HPM_P1;HPM_P2
2022/02/05 00:00:31;;;;;;;0.90;0.80;;;3.80;99.90;;;;;;5057388;28;20955;-92
2022/02/05 00:03:11;;;;;;;0.47;0.40;;;4.00;99.90;;;;;;5056554;28;20458;-94
2022/02/05 00:05:45;;;;;;;0.77;0.77;;;3.70;99.90;;;;;;5057160;28;21037;-94
2022/02/05 00:08:24;;;;;;;1.63;1.10;;;;;;;;;;5056857;28;20457;-94
2022/02/05 00:11:15;;;;;;;2.33;0.60;;;;;;;;;;5056859;28;20484;-93
2022/02/05 00:14:13;;;;;;;3.90;1.40;;;;;;;;;;5056844;28;20445;-92
2022/02/05 00:38:13;;;;;;;1.90;1.13;;;;;;;;;;5056472;28;20509;-95
2022/02/05 00:39:16;;;;;;;0.50;0.40;;;;;;;;;;5056254;28;20964;-94
2022/02/05 00:41:50;;;;;;;0.60;0.40;;;;;;;;;;5056517;28;20540;-92
2022/02/05 00:44:17;;;;;;;2.80;0.80;;;;;;;;;;5056682;28;20996;-93
2022/02/05 00:46:46;;;;;;;0.60;0.60;;;;;;;;;;5056465;28;20485;-94
2022/02/05 00:49:14;;;;;;;0.70;0.50;;;;;;;;;;5055687;28;20786;-93
2022/02/05 00:51:47;;;;;;;0.53;0.30;;;;;;;;;;5056357;28;20454;-94
2022/02/05 00:54:17;;;;;;;0.67;0.50;;;;;;;;;;5055983;28;20486;-94
2022/02/05 00:59:29;;;;;;;3.33;1.23;;;;;;;;;;5048595;28;20642;-93
2022/02/05 01:01:56;;;;;;;1.93;0.60;;;;;;;;;;5056745;28;20480;-93
2022/02/05 01:04:24;;;;;;;1.50;0.67;;;;;;;;;;5055181;28;20458;-92
2022/02/05 01:06:52;;;;;;;3.40;0.83;;;;;;;;;;5055733;28;20486;-91
2022/02/05 01:09:22;;;;;;;2.00;0.60;;;;;;;;;;5055857;28;20454;-92
2022/02/05 01:11:49;;;;;;;2.57;1.00;;;;;;;;;;5055774;28;20462;-91
2022/02/05 01:14:20;;;;;;;5.50;1.40;;;;;;;;;;5057989;28;20438;-92
2022/02/05 01:16:55;;;;;;;2.33;1.33;;;;;;;;;;5055718;28;20444;-93
2022/02/05 01:19:47;;;;;;;1.67;0.70;;;;;;;;;;5055355;28;20512;-92
2022/02/05 01:22:17;;;;;;;1.53;1.10;;;;;;;;;;5055464;28;20449;-92
2022/02/05 01:24:46;;;;;;;1.20;0.60;;;;;;;;;;5055482;28;20449;-91
2022/02/05 01:27:18;;;;;;;0.40;0.40;;;;;;;;;;5055319;28;20479;-91
2022/02/05 01:30:02;;;;;;;2.97;1.23;;;;;;;;;;5055046;28;20508;-90
2022/02/05 01:32:31;;;;;;;1.83;0.80;;;;;;;;;;5054611;28;20837;-92
2022/02/05 01:35:05;;;;;;;2.20;0.90;;;;;;;;;;5055429;28;20465;-92
2022/02/05 01:51:36;;;;;;;3.20;0.53;;;;;;;;;;5055130;28;20482;-92
2022/02/05 01:54:18;;;;;;;2.10;0.80;;;1.60;99.90;;;;;;5054246;28;20478;-91
2022/02/05 01:56:50;;;;;;;2.90;0.93;;;;;;;;;;5055102;28;20474;-94
2022/02/05 01:59:27;;;;;;;0.97;0.70;;;;;;;;;;5054788;28;20441;-94
2022/02/05 02:13:22;;;;;;;4.93;0.97;;;;;;;;;;5074379;28;20453;-92
2022/02/05 02:15:59;;;;;;;1.57;0.80;;;;;;;;;;5054893;28;20523;-94
2022/02/05 02:18:41;;;;;;;1.30;0.70;;;;;;;;;;5053821;28;20905;-93
2022/02/05 02:21:22;;;;;;;1.27;0.67;;;;;;;;;;5054688;28;20860;-93
2022/02/05 02:24:00;;;;;;;7.70;1.40;;;;;;;;;;5054575;28;20460;-94
2022/02/05 02:26:39;;;;;;;3.70;1.30;;;;;;;;;;5053927;28;20579;-92
2022/02/05 02:31:51;;;;;;;5.50;1.13;;;;;;;;;;5073744;28;20480;-94
2022/02/05 02:34:27;;;;;;;2.80;0.90;;;;;;;;;;5065829;28;20506;-93
2022/02/05 02:36:57;;;;;;;2.80;1.47;;;;;;;;;;5054948;28;20485;-93
2022/02/05 02:39:27;;;;;;;0.73;0.70;;;;;;;;;;5071258;28;20456;-94
2022/02/05 02:42:02;;;;;;;1.97;1.10;;;;;;;;;;5065037;28;20430;-94
2022/02/05 02:44:29;;;;;;;2.67;1.10;;;;;;;;;;5054432;28;20457;-91
2022/02/05 02:46:59;;;;;;;2.03;1.17;;;;;;;;;;5073975;28;20496;-94
2022/02/05 02:49:41;;;;;;;1.80;0.93;;;;;;;;;;5068621;28;20475;-93
2022/02/05 02:57:49;;;;;;;2.50;1.27;;;;;;;;;;5074109;28;20427;-94
2022/02/05 03:00:17;;;;;;;2.03;1.10;;;;;;;;;;5064895;28;20451;-95
2022/02/05 03:02:44;;;;;;;2.53;1.30;;;;;;;;;;5049811;28;20437;-95
2022/02/05 03:05:11;;;;;;;1.80;1.30;;;;;;;;;;5054818;28;20453;-94
2022/02/05 03:07:38;;;;;;;2.23;1.40;;;;;;;;;;5057840;28;20494;-94
2022/02/05 03:10:08;;;;;;;1.77;1.27;;;1.40;99.90;;;;;;5057946;28;20437;-94
2022/02/05 03:12:35;;;;;;;3.23;1.10;;;;;;;;;;5058369;28;20450;-94
2022/02/05 03:15:12;;;;;;;2.80;1.50;;;;;;;;;;5058435;28;20442;-94
2022/02/05 03:17:42;;;;;;;5.00;1.70;;;;;;;;;;5055869;28;20467;-92
2022/02/05 03:20:10;;;;;;;7.80;1.60;;;1.40;99.90;;;;;;5057721;28;20579;-92
2022/02/05 03:22:37;;;;;;;2.90;1.40;;;;;;;;;;5052326;28;20442;-91
2022/02/05 03:25:04;;;;;;;2.27;0.70;;;;;;;;;;5058873;28;20455;-92
2022/02/05 03:27:33;;;;;;;1.40;1.10;;;;;;;;;;5054952;28;20489;-90
2022/02/05 03:30:01;;;;;;;1.03;0.70;;;;;;;;;;5057778;28;20445;-91
2022/02/05 03:32:28;;;;;;;2.13;1.50;;;;;;;;;;5056928;28;20484;-91
2022/02/05 03:34:55;;;;;;;1.83;1.50;;;;;;;;;;5057525;28;20465;-92
2022/02/05 03:37:22;;;;;;;2.60;1.53;;;;;;;;;;5057607;28;20433;-92
2022/02/05 03:39:50;;;;;;;1.20;0.80;;;;;;;;;;5057904;28;20794;-92
2022/02/05 03:42:17;;;;;;;1.23;1.13;;;;;;;;;;5057687;28;20481;-92
2022/02/05 03:44:50;;;;;;;7.40;1.70;;;;;;;;;;5057802;28;20900;-92
2022/02/05 03:47:17;;;;;;;10.73;1.63;;;;;;;;;;5057590;28;20491;-92
2022/02/05 03:49:44;;;;;;;7.97;2.17;;;;;;;;;;5056700;28;20457;-92
2022/02/05 03:52:12;;;;;;;1.40;1.10;;;;;;;;;;5057030;28;20507;-93
2022/02/05 03:54:39;;;;;;;3.13;1.37;;;;;;;;;;5057167;28;20464;-94
2022/02/05 03:57:06;;;;;;;1.20;1.10;;;;;;;;;;5057909;28;20457;-93
2022/02/05 03:59:34;;;;;;;3.97;1.33;;;1.20;99.90;;;;;;5055497;28;20488;-93
2022/02/05 04:02:03;;;;;;;3.80;1.93;;;;;;;;;;5057587;28;20446;-93
2022/02/05 04:04:30;;;;;;;3.27;1.83;;;;;;;;;;5056274;28;20455;-92
2022/02/05 04:06:58;;;;;;;1.87;0.80;;;;;;;;;;5053047;28;20506;-93
2022/02/05 04:09:29;;;;;;;5.70;1.87;;;;;;;;;;5056818;28;20458;-93
2022/02/05 04:15:55;;;;;;;4.27;1.73;;;1.30;99.90;;;;;;5022396;28;20450;-92
2022/02/05 04:17:31;;;;;;;4.57;2.50;;;;;;;;;;5055952;28;20450;-91
2022/02/05 04:20:01;;;;;;;2.80;1.97;;;;;;;;;;5056808;28;20456;-92
2022/02/05 04:22:30;;;;;;;1.87;1.60;;;;;;;;;;5054426;28;20465;-93
2022/02/05 04:24:57;;;;;;;2.10;1.03;;;;;;;;;;5057048;28;20447;-92
2022/02/05 04:27:24;;;;;;;4.33;1.70;;;;;;;;;;5056347;28;21022;-93
2022/02/05 04:29:51;;;;;;;3.50;1.50;;;;;;;;;;5056759;28;20449;-92
2022/02/05 04:32:18;;;;;;;1.10;1.00;;;;;;;;;;5056510;28;20501;-93
2022/02/05 04:34:47;;;;;;;3.23;1.60;;;;;;;;;;5056930;28;20445;-93
2022/02/05 04:37:17;;;;;;;2.30;1.63;;;;;;;;;;5056558;28;20948;-93
2022/02/05 04:39:51;;;;;;;2.90;1.50;;;;;;;;;;5056207;28;20430;-94
2022/02/05 04:42:25;;;;;;;1.80;1.47;;;;;;;;;;5056332;28;20458;-93
2022/02/05 04:45:17;;;;;;;6.43;1.70;;;;;;;;;;5056011;28;20469;-92
2022/02/05 04:48:05;;;;;;;8.40;1.90;;;;;;;;;;5055199;28;20495;-94
2022/02/05 04:56:21;;;;;;;1.37;1.20;;;;;;;;;;5056477;28;20489;-92
2022/02/05 04:59:12;;;;;;;3.30;1.90;;;;;;;;;;5055871;28;20462;-92
2022/02/05 05:01:55;;;;;;;3.17;1.73;;;;;;;;;;5056111;28;20467;-93
2022/02/05 05:04:32;;;;;;;2.57;1.73;;;;;;;;;;5055299;28;20497;-92
2022/02/05 05:09:58;;;;;;;2.60;1.80;;;;;;;;;;5055885;28;20488;-94
2022/02/05 05:12:36;;;;;;;3.30;1.27;;;1.60;99.90;;;;;;5055870;28;20484;-94
2022/02/05 05:15:22;;;;;;;4.70;1.73;;;;;;;;;;5055642;28;20442;-93
2022/02/05 05:20:34;;;;;;;1.77;1.23;;;;;;;;;;5056153;28;20464;-93
2022/02/05 05:23:02;;;;;;;1.37;0.70;;;;;;;;;;5056367;28;20963;-94
2022/02/05 05:25:29;;;;;;;2.70;1.10;;;;;;;;;;5057730;28;20816;-92
2022/02/05 05:28:02;;;;;;;1.43;0.90;;;;;;;;;;5053354;28;20527;-93
2022/02/05 05:30:29;;;;;;;2.93;1.30;;;;;;;;;;5055243;28;20446;-93
2022/02/05 05:32:57;;;;;;;2.27;1.77;;;;;;;;;;5055794;28;20437;-92
2022/02/05 05:35:25;;;;;;;2.87;1.37;;;1.60;99.90;;;;;;5060997;28;20454;-94
2022/02/05 05:37:53;;;;;;;9.20;1.07;;;;;;;;;;5061779;28;20953;-91
2022/02/05 05:40:21;;;;;;;1.43;0.83;;;;;;;;;;5055944;28;20476;-93
2022/02/05 05:42:58;;;;;;;1.57;0.77;;;;;;;;;;5057476;28;20437;-94
2022/02/05 05:45:37;;;;;;;0.73;0.60;;;;;;;;;;5055488;28;20469;-94
2022/02/05 05:48:11;;;;;;;0.50;0.43;;;1.60;99.90;;;;;;5055019;28;20491;-94
2022/02/05 05:50:59;;;;;;;2.57;1.03;;;1.60;99.90;;;;;;5056444;28;20446;-94
2022/02/05 05:53:27;;;;;;;2.20;1.33;;;;;;;;;;5055964;28;20461;-93
2022/02/05 05:55:57;;;;;;;1.53;1.43;;;1.50;99.90;;;;;;5055968;28;20821;-94
2022/02/05 05:58:26;;;;;;;5.60;1.70;;;;;;;;;;5056582;28;20455;-94
2022/02/05 06:00:53;;;;;;;2.90;1.23;;;;;;;;;;5053989;28;20467;-92
2022/02/05 06:03:21;;;;;;;2.03;0.60;;;1.60;99.90;;;;;;5058275;28;20452;-93
2022/02/05 06:05:51;;;;;;;2.40;1.37;;;;;;;;;;5066457;28;20438;-92
2022/02/05 06:08:19;;;;;;;1.07;0.87;;;;;;;;;;5072912;28;20486;-94
2022/02/05 06:10:46;;;;;;;2.50;2.30;;;;;;;;;;5056096;28;20461;-93
2022/02/05 06:13:15;;;;;;;1.67;1.47;;;;;;;;;;5076092;28;20507;-93
2022/02/05 06:15:43;;;;;;;4.37;1.80;;;;;;;;;;5075651;28;20460;-92
2022/02/05 06:18:10;;;;;;;2.00;1.20;;;;;;;;;;5074650;28;20452;-92
2022/02/05 06:20:38;;;;;;;3.73;1.90;;;;;;;;;;5074649;28;20453;-92
2022/02/05 06:23:06;;;;;;;3.07;1.90;;;;;;;;;;5074489;28;20536;-92
2022/02/05 06:25:33;;;;;;;1.53;0.80;;;;;;;;;;5075754;28;20462;-92
2022/02/05 06:28:00;;;;;;;4.03;1.60;;;;;;;;;;5074855;28;20898;-94
2022/02/05 06:30:29;;;;;;;3.37;1.53;;;;;;;;;;5075934;28;20468;-92
2022/02/05 06:32:56;;;;;;;6.83;1.33;;;;;;;;;;5076446;28;20437;-95
2022/02/05 06:35:23;;;;;;;2.10;1.70;;;;;;;;;;5076964;28;20477;-94
2022/02/05 06:37:50;;;;;;;2.67;1.47;;;;;;;;;;5077943;28;20507;-93
2022/02/05 06:40:17;;;;;;;6.57;1.80;;;;;;;;;;5076037;28;20446;-94
2022/02/05 06:42:48;;;;;;;1.37;1.27;;;;;;;;;;5080792;28;20463;-92
2022/02/05 06:45:15;;;;;;;1.93;1.73;;;;;;;;;;5056398;28;20444;-96
2022/02/05 06:47:44;;;;;;;3.80;1.90;;;1.80;99.90;;;;;;5057256;28;20489;-94
2022/02/05 06:50:11;;;;;;;6.40;2.07;;;;;;;;;;5055518;28;20912;-92
2022/02/05 06:52:39;;;;;;;3.70;2.00;;;;;;;;;;5060457;28;20451;-95
2022/02/05 06:55:07;;;;;;;3.63;2.00;;;1.70;99.90;;;;;;5063683;28;20453;-91
2022/02/05 06:57:34;;;;;;;3.73;2.27;;;;;;;;;;5073940;28;20438;-93
2022/02/05 07:00:02;;;;;;;2.10;1.90;;;;;;;;;;5076569;28;20453;-94
2022/02/05 07:09:22;;;;;;;4.20;1.57;;;1.60;99.90;;;;;;5069605;28;20460;-93
2022/02/05 07:11:51;;;;;;;3.63;1.80;;;;;;;;;;5074700;28;20544;-92
2022/02/05 07:14:21;;;;;;;8.30;2.30;;;;;;;;;;5074927;28;20471;-92
2022/02/05 07:16:55;;;;;;;3.33;1.60;;;1.60;99.90;;;;;;5071978;28;20507;-94
2022/02/05 07:19:36;;;;;;;4.10;1.80;;;;;;;;;;5074288;28;20510;-93
2022/02/05 07:22:04;;;;;;;0.87;0.80;;;;;;;;;;5074365;28;20469;-94
2022/02/05 07:24:50;;;;;;;6.37;2.97;;;;;;;;;;5074991;28;20534;-94
2022/02/05 07:30:01;;;;;;;2.80;1.80;;;;;;;;;;5074227;28;20483;-92
2022/02/05 07:32:29;;;;;;;1.20;1.00;;;1.60;99.90;;;;;;5073183;28;20496;-93
2022/02/05 07:34:56;;;;;;;8.17;2.70;;;;;;;;;;5075127;28;20456;-92
2022/02/05 07:37:23;;;;;;;2.40;1.77;;;;;;;;;;5073020;28;20449;-93
2022/02/05 07:39:52;;;;;;;3.90;2.50;;;;;;;;;;5073648;28;20445;-92
2022/02/05 07:42:19;;;;;;;2.10;1.87;;;;;;;;;;5074240;28;20465;-92
2022/02/05 07:44:48;;;;;;;3.00;1.57;;;;;;;;;;5074497;28;20451;-93
2022/02/05 07:47:20;;;;;;;2.83;2.20;;;;;;;;;;5074848;28;20484;-93
2022/02/05 07:49:51;;;;;;;5.77;1.80;;;;;;;;;;5086098;22;20492;-93
2022/02/05 07:52:19;;;;;;;3.30;1.57;;;;;;;;;;5077632;28;20935;-92
2022/02/05 07:54:57;;;;;;;8.20;1.70;;;2.40;99.90;;;;;;5078610;28;20504;-93
2022/02/05 07:57:27;;;;;;;0.80;0.50;;;;;;;;;;5076899;28;20457;-93
2022/02/05 07:59:55;;;;;;;2.23;1.90;;;2.60;99.90;;;;;;5091062;28;20440;-93
2022/02/05 08:02:22;;;;;;;4.20;2.23;;;;;;;;;;5095421;28;20464;-94
2022/02/05 08:04:53;;;;;;;1.30;1.20;;;3.10;99.90;;;;;;5096271;28;20452;-91
2022/02/05 08:07:20;;;;;;;2.93;1.10;;;;;;;;;;5097198;28;20494;-93
2022/02/05 08:09:55;;;;;;;1.73;1.03;;;;;;;;;;5098217;28;20467;-92
2022/02/05 08:12:24;;;;;;;2.97;1.50;;;3.40;99.90;;;;;;5094069;28;20441;-92
2022/02/05 08:14:52;;;;;;;4.40;1.40;;;;;;;;;;5090438;28;20460;-92
2022/02/05 08:17:22;;;;;;;3.93;1.43;;;;;;;;;;5077326;28;20457;-93
2022/02/05 08:19:49;;;;;;;14.13;1.60;;;;;;;;;;5075233;28;20453;-94
2022/02/05 08:22:17;;;;;;;2.40;1.37;;;;;;;;;;5077102;28;20462;-93
2022/02/05 08:24:44;;;;;;;1.73;0.90;;;;;;;;;;5074984;28;20452;-91
2022/02/05 08:27:11;;;;;;;1.17;0.60;;;4.20;99.90;;;;;;5079071;28;20441;-93
2022/02/05 08:29:48;;;;;;;2.73;1.90;;;;;;;;;;5082362;28;20459;-93
2022/02/05 08:32:15;;;;;;;7.73;0.90;;;;;;;;;;5081412;28;20460;-93
2022/02/05 08:34:42;;;;;;;1.13;0.70;;;;;;;;;;5078151;28;20457;-90
2022/02/05 08:37:09;;;;;;;1.10;1.00;;;;;;;;;;5074199;28;20461;-93
2022/02/05 08:39:36;;;;;;;5.60;1.13;;;;;;;;;;5079461;28;20449;-91
2022/02/05 08:42:03;;;;;;;1.20;1.00;;;;;;;;;;5079829;28;20459;-94
2022/02/05 08:44:39;;;;;;;2.60;0.87;;;;;;;;;;5074847;22;20492;-94
2022/02/05 08:47:07;;;;;;;3.50;1.63;;;;;;;;;;5069233;28;20453;-94
2022/02/05 08:49:35;;;;;;;3.60;1.40;;;;;;;;;;5074938;28;20473;-95
2022/02/05 08:52:05;;;;;;;2.47;0.90;;;;;;;;;;5067757;28;20452;-95
2022/02/05 08:54:33;;;;;;;4.97;1.30;;;;;;;;;;5098129;22;20479;-93
2022/02/05 08:57:00;;;;;;;1.83;1.00;;;;;;;;;;5109453;28;20478;-94
2022/02/05 08:59:33;;;;;;;3.50;1.27;;;;;;;;;;5122903;22;20502;-96
2022/02/05 09:02:04;;;;;;;1.60;1.23;;;;;;;;;;5105879;28;20441;-92
2022/02/05 09:04:45;;;;;;;3.67;1.90;;;;;;;;;;5107742;28;20450;-95
2022/02/05 09:07:12;;;;;;;1.70;1.20;;;;;;;;;;5103347;28;20436;-95
2022/02/05 09:09:51;;;;;;;1.43;0.97;;;;;;;;;;5099617;28;20495;-95
2022/02/05 09:12:31;;;;;;;6.73;1.40;;;;;;;;;;5098126;28;20467;-93
2022/02/05 09:14:58;;;;;;;3.43;1.00;;;;;;;;;;5097571;28;20571;-92
2022/02/05 09:17:26;;;;;;;1.73;0.97;;;;;;;;;;5095722;28;20455;-93
2022/02/05 09:19:54;;;;;;;3.20;0.93;;;;;;;;;;5098388;28;20491;-92
2022/02/05 09:22:22;;;;;;;4.10;1.17;;;;;;;;;;5096093;28;20453;-94
2022/02/05 09:24:49;;;;;;;1.57;0.97;;;;;;;;;;5100152;28;20438;-93
2022/02/05 09:27:17;;;;;;;2.47;1.00;;;;;;;;;;5100528;28;20444;-93
2022/02/05 09:29:58;;;;;;;3.77;1.30;;;;;;;;;;5098297;28;20487;-93
2022/02/05 09:32:25;;;;;;;5.73;1.10;;;;;;;;;;5099195;28;20443;-93
2022/02/05 09:34:53;;;;;;;1.37;0.83;;;;;;;;;;5098229;28;20441;-91
2022/02/05 09:37:22;;;;;;;9.50;1.80;;;8.00;99.90;;;;;;5096121;28;20449;-92
2022/02/05 09:39:49;;;;;;;2.53;0.97;;;;;;;;;;5097852;28;20469;-92
2022/02/05 09:42:16;;;;;;;3.13;0.60;;;7.70;99.90;;;;;;5099492;28;20438;-92
2022/02/05 09:44:44;;;;;;;1.17;0.83;;;;;;;;;;5077872;28;20634;-93
2022/02/05 09:47:11;;;;;;;2.80;1.00;;;;;;;;;;5074677;28;20482;-92
2022/02/05 09:49:39;;;;;;;22.67;1.77;;;;;;;;;;5077672;28;20485;-91
2022/02/05 09:52:09;;;;;;;1.00;0.53;;;;;;;;;;5075919;28;20940;-93
2022/02/05 09:54:39;;;;;;;3.53;0.97;;;7.50;99.90;;;;;;5057016;28;20469;-91
2022/02/05 09:57:06;;;;;;;3.43;1.13;;;;;;;;;;5056760;28;20459;-92
2022/02/05 09:59:39;;;;;;;2.40;0.80;;;;;;;;;;5056446;28;20489;-92
2022/02/05 10:02:18;;;;;;;2.17;1.00;;;;;;;;;;5057401;28;20431;-92
2022/02/05 10:04:55;;;;;;;1.97;1.17;;;;;;;;;;5055664;28;20452;-91
2022/02/05 10:07:22;;;;;;;4.90;1.20;;;;;;;;;;5058880;28;20444;-94
2022/02/05 10:09:58;;;;;;;2.73;1.57;;;;;;;;;;5058789;28;21039;-94
2022/02/05 10:12:25;;;;;;;1.20;0.70;;;;;;;;;;5055897;28;20452;-93
2022/02/05 10:14:55;;;;;;;9.33;1.20;;;7.10;99.90;;;;;;5056136;28;20459;-93
2022/02/05 10:17:36;;;;;;;1.70;0.90;;;7.40;99.90;;;;;;5055689;28;20441;-94
2022/02/05 10:20:04;;;;;;;3.07;1.23;;;;;;;;;;5054863;28;20443;-93
2022/02/05 10:22:36;;;;;;;5.50;1.23;;;7.50;99.90;;;;;;5057101;28;20464;-93
2022/02/05 10:25:15;;;;;;;1.10;0.67;;;7.60;99.90;;;;;;5057333;28;20512;-95
2022/02/05 10:27:44;;;;;;;1.33;0.80;;;;;;;;;;5055082;28;20433;-93
2022/02/05 10:30:13;;;;;;;3.03;0.87;;;7.90;99.90;;;;;;5057623;28;20454;-93
2022/02/05 10:32:43;;;;;;;1.33;0.70;;;8.10;99.90;;;;;;5053350;28;20480;-92
2022/02/05 10:35:21;;;;;;;1.10;0.50;;;;;;;;;;5054479;28;20863;-93
2022/02/05 10:37:54;;;;;;;3.37;0.90;;;7.80;99.90;;;;;;5057526;28;20457;-92
2022/02/05 10:40:29;;;;;;;0.90;0.70;;;;;;;;;;5054813;28;20452;-94
2022/02/05 10:43:05;;;;;;;2.87;0.77;;;;;;;;;;5054106;28;20477;-93
2022/02/05 10:45:40;;;;;;;12.60;1.80;;;9.20;99.90;;;;;;5056329;28;20435;-92
2022/02/05 10:48:08;;;;;;;6.10;0.80;;;8.90;99.90;;;;;;5053577;28;20446;-92
2022/02/05 10:50:35;;;;;;;2.07;0.97;;;;;;;;;;5053945;28;20458;-93
2022/02/05 10:53:07;;;;;;;1.97;0.97;;;9.20;99.90;;;;;;5055605;28;20486;-94
2022/02/05 10:55:47;;;;;;;3.03;1.10;;;9.20;99.90;;;;;;5054437;28;20455;-93
2022/02/05 10:58:24;;;;;;;4.13;1.70;;;;;;;;;;5054494;28;21059;-95
2022/02/05 11:06:20;;;;;;;1.90;0.57;;;;;;;;;;5054026;28;20426;-92
2022/02/05 11:08:47;;;;;;;0.80;0.37;;;;;;;;;;5056365;28;20486;-92
2022/02/05 11:14:07;;;;;;;0.57;0.57;;;;;;;;;;5053882;28;20470;-92
2022/02/05 11:16:55;;;;;;;1.90;0.77;;;;;;;;;;5053763;28;20443;-91
2022/02/05 11:19:22;;;;;;;1.67;0.70;;;;;;;;;;5053287;28;20453;-92
2022/02/05 11:21:50;;;;;;;2.27;0.90;;;;;;;;;;5053850;28;20466;-92
2022/02/05 11:24:17;;;;;;;2.73;0.83;;;;;;;;;;5056347;28;20460;-92
2022/02/05 11:26:45;;;;;;;3.63;0.77;;;;;;;;;;5056710;28;20444;-92
2022/02/05 11:29:28;;;;;;;1.13;0.90;;;8.40;99.30;;;;;;5058918;28;20491;-94
2022/02/05 11:31:56;;;;;;;1.23;0.50;;;;;;;;;;5056296;28;20519;-91
2022/02/05 11:34:30;;;;;;;0.50;0.30;;;7.10;99.70;;;;;;5058288;28;20450;-92
2022/02/05 11:37:05;;;;;;;2.00;0.60;;;7.00;99.90;;;;;;5057146;28;20484;-91
2022/02/05 11:39:47;;;;;;;2.70;0.60;;;7.40;99.40;;;;;;5056320;28;20953;-90
2022/02/05 11:42:31;;;;;;;3.20;0.93;;;8.10;99.70;;;;;;5060758;28;20457;-92
2022/02/05 11:44:59;;;;;;;3.50;0.83;;;8.60;98.10;;;;;;5077479;28;20455;-93
2022/02/05 11:47:31;;;;;;;5.60;1.13;;;8.30;97.70;;;;;;5076856;28;20460;-93
2022/02/05 11:50:18;;;;;;;6.53;0.90;;;8.10;98.00;;;;;;5077665;28;20481;-92
2022/02/05 11:52:55;;;;;;;1.20;0.43;;;8.20;97.80;;;;;;5081890;28;20466;-93
2022/02/05 11:55:31;;;;;;;2.50;0.70;;;7.80;98.50;;;;;;5081092;28;20445;-93
2022/02/05 11:58:01;;;;;;;1.80;0.87;;;;;;;;;;5078880;28;20842;-93
2022/02/05 12:00:32;;;;;;;1.00;0.50;;;8.70;97.80;;;;;;5077466;28;20494;-93
2022/02/05 12:03:02;;;;;;;1.67;0.47;;;;;;;;;;5072156;28;20527;-94
2022/02/05 12:05:32;;;;;;;6.73;1.00;;;8.10;97.40;;;;;;5080377;28;20460;-93
2022/02/05 12:08:00;;;;;;;2.80;0.70;;;7.80;98.10;;;;;;5073237;28;20953;-92
2022/02/05 12:10:33;;;;;;;1.13;0.40;;;7.80;98.00;;;;;;5074000;28;21026;-91
2022/02/05 12:13:15;;;;;;;0.90;0.60;;;;;;;;;;5078107;28;20443;-93
2022/02/05 12:15:43;;;;;;;1.17;0.50;;;;;;;;;;5078381;28;20804;-91
2022/02/05 12:18:33;;;;;;;2.90;1.00;;;;;;;;;;5078112;28;20470;-93
2022/02/05 12:21:05;;;;;;;2.07;0.97;;;9.50;95.70;;;;;;5076638;28;20534;-94
2022/02/05 12:27:01;;;;;;;0.43;0.30;;;8.50;97.20;;;;;;5076726;28;20428;-92
2022/02/05 12:29:34;;;;;;;1.93;0.47;;;;;;;;;;5078275;28;20483;-93
2022/02/05 12:32:02;;;;;;;2.80;0.87;;;8.70;96.60;;;;;;5077772;28;20454;-94
2022/02/05 12:34:36;;;;;;;2.70;0.60;;;8.90;95.60;;;;;;5035714;28;20457;-92
2022/02/05 12:37:04;;;;;;;1.23;0.40;;;;;;;;;;5031220;28;20859;-91
2022/02/05 12:39:36;;;;;;;0.87;0.50;;;8.20;97.30;;;;;;5037483;28;20452;-91
2022/02/05 12:42:08;;;;;;;2.30;0.77;;;8.40;96.60;;;;;;5033973;28;20516;-92
2022/02/05 12:44:40;;;;;;;2.20;0.63;;;9.50;95.70;;;;;;5036587;28;20434;-94
2022/02/05 12:47:12;;;;;;;1.03;0.50;;;9.30;95.30;;;;;;5035765;28;20451;-94
2022/02/05 12:49:47;;;;;;;3.30;0.93;;;;;;;;;;5030634;28;20491;-95
2022/02/05 12:52:14;;;;;;;3.47;0.90;;;;;;;;;;5048422;28;20850;-92
2022/02/05 12:54:48;;;;;;;1.93;0.60;;;9.20;95.40;;;;;;5079774;28;20430;-93
2022/02/05 12:57:20;;;;;;;2.20;0.63;;;9.10;95.30;;;;;;5077872;28;20915;-93
2022/02/05 12:59:51;;;;;;;1.47;0.40;;;;;;;;;;5077497;28;20479;-93
2022/02/05 13:02:23;;;;;;;7.23;0.70;;;9.20;94.50;;;;;;5080269;28;20954;-92
2022/02/05 13:04:50;;;;;;;3.37;1.20;;;9.70;94.80;;;;;;5054580;28;20459;-93
2022/02/05 13:07:21;;;;;;;4.33;0.80;;;9.60;94.10;;;;;;5056447;28;20447;-93
2022/02/05 13:09:50;;;;;;;1.33;0.70;;;9.90;94.10;;;;;;5058147;28;20485;-95
2022/02/05 13:12:21;;;;;;;3.00;0.57;;;10.10;93.40;;;;;;5065345;28;20436;-91
2022/02/05 13:14:54;;;;;;;4.40;0.80;;;10.10;93.40;;;;;;5075050;28;20419;-94
2022/02/05 13:17:38;;;;;;;2.07;0.40;;;9.30;94.30;;;;;;5057337;28;21066;-92
2022/02/05 13:24:41;;;;;;;1.00;0.40;;;9.50;94.80;;;;;;5056379;28;20492;-94
2022/02/05 13:26:08;;;;;;;3.23;0.40;;;9.10;95.00;;;;;;5081106;28;20427;-92
2022/02/05 13:28:44;;;;;;;0.53;0.33;;;9.20;95.00;;;;;;5080747;28;20530;-94
2022/02/05 13:34:07;;;;;;;0.40;0.40;;;9.30;94.60;;;;;;5080263;28;20443;-94
2022/02/05 13:36:40;;;;;;;1.20;0.60;;;9.00;95.10;;;;;;5081796;28;20532;-96
2022/02/05 13:39:16;;;;;;;1.87;0.73;;;9.20;94.90;;;;;;5078280;28;20432;-92
2022/02/05 13:41:51;;;;;;;1.57;0.67;;;9.00;95.50;;;;;;5074255;28;20449;-92
2022/02/05 13:44:21;;;;;;;0.90;0.40;;;;;;;;;;5076303;28;20946;-93
2022/02/05 13:47:07;;;;;;;1.53;0.80;;;9.00;95.30;;;;;;5075686;28;20448;-93
2022/02/05 13:49:35;;;;;;;0.80;0.50;;;8.90;95.00;;;;;;5073543;28;20851;-93
2022/02/05 13:52:07;;;;;;;1.07;0.50;;;8.80;95.70;;;;;;5074917;28;20445;-92
2022/02/05 13:54:35;;;;;;;0.70;0.40;;;;;;;;;;5074683;28;20457;-93
2022/02/05 13:57:02;;;;;;;0.83;0.50;;;;;;;;;;5075000;28;20439;-93
2022/02/05 13:59:30;;;;;;;1.73;0.70;;;;;;;;;;5074568;28;20477;-90
2022/02/05 14:01:57;;;;;;;8.13;1.13;;;;;;;;;;5074594;28;20973;-91
2022/02/05 14:04:25;;;;;;;5.50;0.60;;;;;;;;;;5074273;28;20432;-94
2022/02/05 14:06:59;;;;;;;1.53;0.53;;;7.80;96.50;;;;;;5074654;28;20459;-94
2022/02/05 14:09:29;;;;;;;0.73;0.70;;;7.40;97.20;;;;;;5074897;28;20968;-92
2022/02/05 14:11:57;;;;;;;1.87;0.73;;;;;;;;;;5073303;28;20472;-92
2022/02/05 14:14:28;;;;;;;1.03;0.40;;;7.80;95.50;;;;;;5074593;28;20465;-94
2022/02/05 14:16:56;;;;;;;0.60;0.30;;;;;;;;;;5069705;28;20890;-93
2022/02/05 14:19:23;;;;;;;1.63;0.60;;;;;;;;;;5073496;28;20466;-93
2022/02/05 14:21:53;;;;;;;0.97;0.40;;;;;;;;;;5075061;28;20443;-94
2022/02/05 14:24:23;;;;;;;2.30;0.93;;;7.80;96.80;;;;;;5077059;28;20475;-93
2022/02/05 14:27:06;;;;;;;1.07;0.47;;;;;;;;;;5072418;28;20440;-93
2022/02/05 14:29:42;;;;;;;1.43;0.30;;;;;;;;;;5077589;28;20481;-93
2022/02/05 14:32:21;;;;;;;0.50;0.40;;;8.40;95.70;;;;;;5075663;28;20904;-93
2022/02/05 14:35:02;;;;;;;2.43;0.70;;;;;;;;;;5072719;28;20482;-94
2022/02/05 14:40:25;;;;;;;2.03;0.40;;;;;;;;;;5076090;28;20931;-92
2022/02/05 14:42:52;;;;;;;1.07;0.70;;;;;;;;;;5076085;28;20468;-95
2022/02/05 14:45:19;;;;;;;2.00;0.80;;;;;;;;;;5073336;28;20428;-96
2022/02/05 14:47:46;;;;;;;2.30;0.47;;;;;;;;;;5073492;28;20447;-93
2022/02/05 14:50:14;;;;;;;1.43;0.50;;;8.70;95.50;;;;;;5074657;28;20540;-92
2022/02/05 14:52:42;;;;;;;1.57;0.60;;;8.00;95.50;;;;;;5073679;28;20447;-93
2022/02/05 14:55:10;;;;;;;0.67;0.60;;;;;;;;;;5052376;28;20443;-91
2022/02/05 14:57:37;;;;;;;1.60;0.67;;;;;;;;;;5056453;28;20437;-94
2022/02/05 15:00:05;;;;;;;1.00;0.73;;;8.10;95.30;;;;;;5053934;28;20572;-93
2022/02/05 15:02:33;;;;;;;2.20;0.60;;;;;;;;;;5060161;28;20453;-92
2022/02/05 15:05:08;;;;;;;1.00;0.30;;;;;;;;;;5058307;28;20907;-92
2022/02/05 15:07:35;;;;;;;3.70;1.10;;;;;;;;;;5058700;28;20637;-93
2022/02/05 15:10:04;;;;;;;2.60;0.60;;;;;;;;;;5061861;28;20489;-94
2022/02/05 15:12:31;;;;;;;1.70;0.70;;;;;;;;;;5040140;28;20460;-90
2022/02/05 15:14:58;;;;;;;1.47;0.60;;;;;;;;;;5038063;28;20450;-93
2022/02/05 15:17:26;;;;;;;6.63;1.00;;;;;;;;;;5034809;28;20814;-92
2022/02/05 15:19:53;;;;;;;5.33;1.77;;;;;;;;;;5035739;28;20443;-94
2022/02/05 15:22:21;;;;;;;1.30;0.60;;;;;;;;;;5035902;28;20452;-93
2022/02/05 15:24:49;;;;;;;0.63;0.43;;;;;;;;;;5036406;28;20453;-95
2022/02/05 15:27:21;;;;;;;1.27;0.77;;;;;;;;;;5037536;28;20449;-94
2022/02/05 15:29:48;;;;;;;2.10;0.60;;;;;;;;;;5037825;28;20490;-89
2022/02/05 15:32:15;;;;;;;1.27;0.73;;;;;;;;;;5071536;28;20438;-88
2022/02/05 15:34:44;;;;;;;3.10;0.80;;;7.30;99.90;;;;;;5074478;28;20948;-87
2022/02/05 15:37:17;;;;;;;1.03;0.60;;;;;;;;;;5076717;28;20519;-89
2022/02/05 15:39:55;;;;;;;2.00;0.90;;;;;;;;;;5077001;28;20456;-89
2022/02/05 15:45:08;;;;;;;2.00;0.67;;;6.50;98.30;;;;;;5077130;28;20519;-88
2022/02/05 15:47:35;;;;;;;6.77;1.07;;;;;;;;;;5075947;28;20458;-87
2022/02/05 15:50:02;;;;;;;3.67;0.83;;;;;;;;;;5076900;28;20497;-89
2022/02/05 15:52:29;;;;;;;2.30;0.77;;;;;;;;;;5079004;28;20507;-89
2022/02/05 15:54:59;;;;;;;1.93;0.50;;;;;;;;;;5076268;28;20995;-89
2022/02/05 15:57:37;;;;;;;0.60;0.40;;;5.80;99.90;;;;;;5076133;28;20461;-89
2022/02/05 16:00:19;;;;;;;2.87;0.70;;;6.10;99.90;;;;;;5076057;28;20925;-89
2022/02/05 16:02:47;;;;;;;2.40;1.07;;;5.80;99.90;;;;;;5075569;28;20511;-88
2022/02/05 16:05:14;;;;;;;1.40;0.50;;;;;;;;;;5076805;28;20450;-88
2022/02/05 16:07:41;;;;;;;1.37;0.73;;;;;;;;;;5077227;28;20455;-88
2022/02/05 16:10:09;;;;;;;1.00;0.60;;;;;;;;;;5075889;28;20507;-90
2022/02/05 16:12:37;;;;;;;0.70;0.70;;;5.50;99.90;;;;;;5076775;28;20464;-87
2022/02/05 16:15:04;;;;;;;3.03;0.80;;;;;;;;;;5076747;28;20459;-88
2022/02/05 16:17:31;;;;;;;3.10;1.10;;;;;;;;;;5075735;28;20457;-90